Kennett, Missouri
Current Conditions -  °F | °C
As of 11:18 AM on Sunday 23 Nov 2014 (Local Time) from KHKA Reporting Station
Light Rain Light Rain  
Wind Chill: 65°   Ceiling: 2600
Heat Index: 65°   Visibility: 5mi
Dew Point: 58°   Wind: 12mph
Humidity: 78%   Direction: 140°SE
Pressure: 29.56"   Gusts: NA
Location:  36.24°N, 90.05°W
Report Text: KHKA 231718Z AUTO 14010KT 5SM -RA SCT011 BKN026 OVC095 18/14 A2956 RMK AO2 PRESFR P0004 T01830144 $
Loading
Personal Weather Stations






























Interactive Weather Map New forecast layout! Learn more

10-Day Weather Forecast

Advertisements
Track Severe Weather on mobile